Flight Track Log - Related Links

Times and Time Zones

All times are in EDT time to prevent confusion due to time zone crossing. See the AAL963 flight status page for this flight to view local times or setup timezone preferences in your user account.

Time Position Orientation Groundspeed Altitude Reporting Facility
EDT Latitude Longitude Course Direction KTS MPH feet Rate Location/Type
Thu 11:09:24 PM 32.8480 -97.0570 194° South 186 214 2,600  Level FlightAware ADS-B
Thu 11:09:50 PM 32.8250 -97.0640 194° South 195 224 3,500 1,895 Climbing FlightAware ADS-B
Thu 11:10:02 PM 32.8160 -97.0670 196° South 194 223 3,800 714 Climbing FlightAware ADS-B
Thu 11:10:32 PM 32.7860 -97.0750 193° South 224 258 4,000 444 Climbing FlightAware ADS-B
Thu 11:10:56 PM 32.7610 -97.0810 191° South 247 284 4,200 1,034 Climbing FlightAware ADS-B
Thu 11:11:30 PM 32.7200 -97.0900 190° South 257 296 5,000 1,355 Climbing FlightAware ADS-B
Thu 11:11:58 PM 32.6880 -97.0840 171° South 263 303 5,600 1,277 Climbing FlightAware ADS-B
Thu 11:12:17 PM 32.6660 -97.0740 159° South 272 313 6,000 1,625 Climbing FlightAware ADS-B
Thu 11:12:46 PM 32.6340 -97.0520 150° Southeast 274 315 6,900 1,733 Climbing FlightAware ADS-B
Thu 11:13:02 PM 32.6160 -97.0400 151° Southeast 276 318 7,300 1,636 Climbing FlightAware ADS-B
Thu 11:13:30 PM 32.5840 -97.0190 151° Southeast 280 322 8,100 1,714 Climbing FlightAware ADS-B
Thu 11:13:58 PM 32.5530 -96.9970 149° Southeast 286 329 8,900 1,750 Climbing FlightAware ADS-B
Thu 11:14:18 PM 32.5300 -96.9810 150° Southeast 287 330 9,500 1,452 Climbing FlightAware ADS-B
Thu 11:15:00 PM 32.4810 -96.9480 150° Southeast 302 348 10,400 1,098 Climbing FlightAware ADS-B
Thu 11:15:40 PM 32.4290 -96.9130 150° Southeast 332 382 11,000 857 Climbing FlightAware ADS-B
Thu 11:16:24 PM 32.3670 -96.8720 151° Southeast 364 419 11,600 1,214 Climbing FlightAware ADS-B
Thu 11:17:04 PM 32.3060 -96.8310 150° Southeast 382 440 12,700 1,605 Climbing FlightAware ADS-B
Thu 11:17:50 PM 32.2310 -96.7940 157° South 397 457 13,900 1,605 Climbing FlightAware ADS-B
Thu 11:18:30 PM 32.1570 -96.7670 163° South 409 471 15,000 1,600 Climbing FlightAware ADS-B
Thu 11:19:05 PM 32.0950 -96.7430 162° South 419 482 15,900 1,700 Climbing FlightAware ADS-B
Thu 11:19:30 PM 32.0479 -96.7255 163° South 424 488 16,700 1,789 Climbing FlightAware ADS-B
Thu 11:20:02 PM 31.9869 -96.7023 162° South 426 490 17,600 1,548 Climbing FlightAware ADS-B
Thu 11:20:32 PM 31.9293 -96.6803 162° South 437 503 18,300 1,475 Climbing FlightAware ADS-B
Thu 11:21:03 PM 31.8687 -96.6573 162° South 444 511 19,100 1,688 Climbing FlightAware ADS-B
Thu 11:21:36 PM 31.8050 -96.6312 161° South 446 513 20,100 1,714 Climbing FlightAware ADS-B
Thu 11:22:06 PM 31.7459 -96.6066 161° South 450 518 20,900 1,400 Climbing FlightAware ADS-B
Thu 11:22:36 PM 31.6863 -96.5820 161° South 459 528 21,500 1,239 Climbing FlightAware ADS-B
Thu 11:23:38 PM 31.5612 -96.5311 161° South 470 541 22,800 1,304 Climbing FlightAware ADS-B
Thu 11:24:08 PM 31.4974 -96.5053 161° South 476 548 23,500 1,377 Climbing FlightAware ADS-B
Thu 11:24:39 PM 31.4336 -96.4816 162° South 477 549 24,200 1,239 Climbing FlightAware ADS-B
Thu 11:25:40 PM 31.3045 -96.4340 162° South 483 556 25,400 1,129 Climbing FlightAware ADS-B
Thu 11:26:20 PM 31.2181 -96.4016 162° South 489 563 26,100 1,043 Climbing FlightAware ADS-B
Thu 11:26:26 PM 31.2060 -96.3959 158° South 488 562 26,200 1,143 Climbing FlightAware ADS-B
Thu 11:26:41 PM 31.1758 -96.3762 149° Southeast 485 558 26,500 1,200 Climbing FlightAware ADS-B
Thu 11:26:51 PM 31.1583 -96.3606 143° Southeast 484 557 26,700 1,125 Climbing FlightAware ADS-B
Thu 11:27:13 PM 31.1255 -96.3182 127° Southeast 482 555 27,100 951 Climbing FlightAware ADS-B
Thu 11:28:13 PM 31.0469 -96.1903 125° Southeast 488 562 28,000 923 Climbing FlightAware ADS-B
Thu 11:28:44 PM 31.0062 -96.1238 126° Southeast 491 565 28,500 738 Climbing FlightAware ADS-B
Thu 11:30:15 PM 30.8847 -95.9267 126° Southeast 503 579 29,500 744 Climbing FlightAware ADS-B
Thu 11:30:45 PM 30.8437 -95.8608 126° Southeast 504 580 30,000 1,000 Climbing FlightAware ADS-B
Thu 11:31:45 PM 30.7623 -95.7296 126° Southeast 499 574 31,000 993 Climbing FlightAware ADS-B
Thu 11:33:16 PM 30.6402 -95.5341 126° Southeast 488 562 32,500 992 Climbing FlightAware ADS-B
Thu 11:33:46 PM 30.6004 -95.4705 126° Southeast 486 559 33,000 197 Climbing FlightAware ADS-B
Thu 11:35:48 PM 30.4398 -95.2149 126° Southeast 482 555 33,000  Level FlightAware ADS-B
Thu 11:36:19 PM 30.3995 -95.1510 126° Southeast 482 555 33,000  Level FlightAware ADS-B
Thu 11:36:53 PM 30.3543 -95.0795 126° Southeast 482 555 33,000  Level FlightAware ADS-B
Thu 11:37:55 PM 30.2736 -94.9524 126° Southeast 479 551 33,000  Level FlightAware ADS-B
Thu 11:38:26 PM 30.2333 -94.8889 126° Southeast 478 550 33,000  Level FlightAware ADS-B
Thu 11:38:45 PM 30.2081 -94.8494 126° Southeast 479 551 33,000  Level FlightAware ADS-B
Thu 11:39:02 PM 30.1842 -94.8157 129° Southeast 482 555 33,000  Level FlightAware ADS-B
Thu 11:39:19 PM 30.1574 -94.7824 133° Southeast 484 557 33,000  Level FlightAware ADS-B
Thu 11:41:01 PM 29.9840 -94.6100 140° Southeast 490 564 33,000  Level FlightAware ADS-B
Thu 11:41:31 PM 29.9309 -94.5587 140° Southeast 491 565 33,000  Level FlightAware ADS-B
Thu 11:42:02 PM 29.8783 -94.5078 140° Southeast 492 566 33,000  Level FlightAware ADS-B
Thu 11:42:32 PM 29.8258 -94.4569 140° Southeast 494 568 33,000  Level FlightAware ADS-B
Thu 11:44:02 PM 29.6673 -94.3037 140° Southeast 498 573 33,000  Level FlightAware ADS-B
Thu 11:45:03 PM 29.5599 -94.2005 140° Southeast 496 571 33,000  Level FlightAware ADS-B
Thu 11:45:33 PM 29.5072 -94.1496 140° Southeast 494 568 33,000  Level FlightAware ADS-B
Thu 11:46:03 PM 29.4543 -94.0979 140° Southeast 494 568 33,000  Level FlightAware ADS-B
Thu 11:46:34 PM 29.4013 -94.0463 140° Southeast 492 566 33,000  Level FlightAware ADS-B
Thu 11:47:04 PM 29.3485 -93.9950 140° Southeast 492 566 33,000  Level FlightAware ADS-B
Thu 11:47:34 PM 29.2960 -93.9443 140° Southeast 493 567 33,000  Level FlightAware ADS-B
Thu 11:48:04 PM 29.2436 -93.8938 140° Southeast 494 568 33,000  Level FlightAware ADS-B
Thu 11:48:35 PM 29.1907 -93.8428 140° Southeast 494 568 33,000  Level FlightAware ADS-B
Thu 11:49:07 PM 29.1350 -93.7891 140° Southeast 494 568 33,000  Level FlightAware ADS-B
Thu 11:49:37 PM 29.0818 -93.7379 140° Southeast 495 570 33,000  Level FlightAware ADS-B
Thu 11:50:09 PM 29.0262 -93.6845 140° Southeast 496 571 33,000 -83 Level FlightAware ADS-B
Thu 11:50:49 PM 28.9608 -93.6222 140° Southeast 492 566 32,900  Descending Houston Center
Thu 11:51:50 PM 28.8567 -93.5225 140° Southeast 491 565 33,000 50 Climbing Houston Center
Thu 11:52:50 PM 28.7539 -93.4247 140° Southeast 485 558 33,000  Level Houston Center
Thu 11:53:51 PM 28.6506 -93.3250 140° Southeast 487 560 33,000 -49 Level Houston Center
Thu 11:54:52 PM 28.5458 -93.2264 140° Southeast 489 563 32,900 -49 Descending Houston Center
Thu 11:55:53 PM 28.4414 -93.1264 140° Southeast 491 565 32,900 50 Level Houston Center
Thu 11:56:53 PM 28.3369 -93.0267 140° Southeast 492 566 33,000  Climbing Houston Center
Thu 11:57:54 PM 28.2306 -92.9261 140° Southeast 497 572 32,900 -49 Descending Houston Center
Thu 11:58:55 PM 28.1233 -92.8267 141° Southeast 499 574 32,900 49 Level Houston Center
Thu 11:59:56 PM 28.0172 -92.7267 140° Southeast 498 573 33,000  Climbing Houston Center
Fri 12:00:56 AM 27.9103 -92.6264 140° Southeast 499 574 32,900 -50 Descending Houston Center
Fri 12:01:57 AM 27.8044 -92.5289 141° Southeast 493 567 32,900 49 Level Houston Center
Fri 12:02:58 AM 27.6981 -92.4308 141° Southeast 492 566 33,000 50 Climbing Houston Center
Fri 12:03:58 AM 27.5931 -92.3328 140° Southeast 492 566 33,000  Level Houston Center
Fri 12:04:59 AM 27.4658 -92.2172 141° Southeast 490 564 33,000  Level Houston Center
Fri 12:06:00 AM 27.3608 -92.1203 141° Southeast 489 563 33,000  Level Houston Center
Fri 12:07:00 AM 27.2550 -92.0239 141° Southeast 490 564 33,000  Level Houston Center
Fri 12:08:01 AM 27.1489 -91.9267 141° Southeast 491 565 33,000  Level Houston Center
Fri 12:10:00 AM 26.9312 -91.7502 144° Southeast  Level FlightAware Approximate
Fri 12:17:00 AM 26.1602 -91.1345 145° Southeast  Level FlightAware Approximate
Fri 12:18:00 AM 26.0495 -91.0478 145° Southeast  Level FlightAware Approximate
Fri 12:19:00 AM 25.9386 -90.9613 145° Southeast  Level FlightAware Approximate
Fri 12:20:00 AM 25.8278 -90.8750 145° Southeast  Level FlightAware Approximate
Fri 12:21:00 AM 25.7168 -90.7889 145° Southeast  Level FlightAware Approximate
Fri 12:22:00 AM 25.6053 -90.7038 146° Southeast  Level FlightAware Approximate
Fri 12:23:00 AM 25.4932 -90.6197 146° Southeast  Level FlightAware Approximate
Fri 12:24:00 AM 25.3811 -90.5357 146° Southeast  Level FlightAware Approximate
Fri 12:25:00 AM 25.2699 -90.4502 145° Southeast  Level FlightAware Approximate
Fri 12:26:00 AM 25.1596 -90.3635 145° Southeast  Level FlightAware Approximate
Fri 12:27:00 AM 25.0491 -90.2771 145° Southeast  Level FlightAware Approximate
Fri 12:28:00 AM 24.9387 -90.1908 145° Southeast  Level FlightAware Approximate
Fri 12:29:00 AM 24.8281 -90.1046 145° Southeast  Level FlightAware Approximate
Fri 12:30:00 AM 24.7175 -90.0186 145° Southeast  Level FlightAware Approximate
Fri 12:31:00 AM 24.6069 -89.9328 145° Southeast  Level FlightAware Approximate
Fri 12:32:00 AM 24.4966 -89.8466 138° Southeast  Level FlightAware Approximate
Fri 12:33:00 AM 24.3856 -89.7617 146° Southeast  Level FlightAware Approximate
Fri 12:34:00 AM 24.2730 -89.6793 146° Southeast  Level FlightAware Approximate
Fri 12:35:00 AM 24.1603 -89.5970 146° Southeast  Level FlightAware Approximate
Fri 12:36:00 AM 24.0476 -89.5149 145° Southeast  Level FlightAware Approximate
Fri 12:37:00 AM 23.9364 -89.4303 145° Southeast  Level FlightAware Approximate
Fri 12:38:00 AM 23.8252 -89.3460 145° Southeast  Level FlightAware Approximate
Fri 12:39:00 AM 23.7139 -89.2617 145° Southeast  Level FlightAware Approximate
Fri 12:40:00 AM 23.6026 -89.1776 145° Southeast  Level FlightAware Approximate
Fri 12:41:00 AM 23.4912 -89.0937 145° Southeast  Level FlightAware Approximate
Fri 12:42:00 AM 23.3798 -89.0099 145° Southeast  Level FlightAware Approximate
Fri 12:43:00 AM 23.2684 -88.9262 145° Southeast  Level FlightAware Approximate
Fri 12:43:26 AM 23.2840 -88.7670 145° Southeast 505 581 33,000  Level FlightAware ADS-B
Fri 12:44:00 AM 23.1569 -88.8426 145° Southeast  Level FlightAware Approximate
Fri 12:44:34 AM 23.1420 -88.6370 140° Southeast 506 582 33,000  Level FlightAware ADS-B
Fri 12:45:15 AM 23.0660 -88.5680 140° Southeast 506 582 33,000  Level FlightAware ADS-B
Fri 12:45:54 AM 22.9950 -88.5040 140° Southeast 506 582 33,000  Level FlightAware ADS-B
Fri 12:46:40 AM 22.9130 -88.4310 141° Southeast 508 585 33,000  Level FlightAware ADS-B
Fri 12:47:20 AM 22.8390 -88.3640 140° Southeast 508 585 33,000  Level FlightAware ADS-B
Fri 12:48:05 AM 22.7450 -88.2790 140° Southeast 509 586 33,000  Level FlightAware ADS-B
Fri 12:48:47 AM 22.6670 -88.2090 140° Southeast 511 588 33,000  Level FlightAware ADS-B
Fri 12:49:27 AM 22.6080 -88.1560 140° Southeast 510 587 33,000  Level FlightAware ADS-B
Fri 12:50:21 AM 22.5100 -88.0680 140° Southeast 511 588 33,000  Level FlightAware ADS-B
Fri 12:51:04 AM 22.4420 -88.0070 140° Southeast 512 589 33,000  Level FlightAware ADS-B
Fri 12:51:48 AM 22.3510 -87.9260 141° Southeast 512 589 33,000  Level FlightAware ADS-B
Fri 12:52:33 AM 22.2740 -87.8580 141° Southeast 512 589 33,000  Level FlightAware ADS-B
Fri 12:53:13 AM 22.1940 -87.7860 140° Southeast 512 589 33,000  Level FlightAware ADS-B
Fri 12:53:49 AM 22.1270 -87.7270 141° Southeast 511 588 33,000  Level FlightAware ADS-B
Fri 12:54:25 AM 22.0620 -87.6690 140° Southeast 511 588 33,000  Level FlightAware ADS-B
Fri 12:55:07 AM 21.9860 -87.6020 141° Southeast 512 589 33,000  Level FlightAware ADS-B
Fri 12:55:53 AM 21.8900 -87.5170 141° Southeast 512 589 33,000  Level FlightAware ADS-B
Fri 12:56:31 AM 21.8290 -87.4630 141° Southeast 512 589 33,000  Level FlightAware ADS-B
Fri 12:57:12 AM 21.7540 -87.3960 140° Southeast 510 587 33,000  Level FlightAware ADS-B
Fri 12:58:07 AM 21.6580 -87.3120 141° Southeast 510 587 33,000  Level FlightAware ADS-B
Fri 12:58:50 AM 21.5670 -87.2310 140° Southeast 510 587 33,000  Level FlightAware ADS-B
Fri 12:59:33 AM 21.4880 -87.1620 141° Southeast 510 587 33,000  Level FlightAware ADS-B
Fri 01:00:14 AM 21.4130 -87.0970 141° Southeast 510 587 33,000  Level FlightAware ADS-B
Fri 01:00:54 AM 21.3390 -87.0320 141° Southeast 509 586 33,000  Level FlightAware ADS-B
Fri 01:01:30 AM 21.2720 -86.9730 141° Southeast 509 586 33,000  Level FlightAware ADS-B
Fri 01:02:14 AM 21.1930 -86.9040 141° Southeast 509 586 33,000  Level FlightAware ADS-B
Fri 01:02:56 AM 21.1160 -86.8370 141° Southeast 509 586 33,000  Level FlightAware ADS-B
Fri 01:03:36 AM 21.0430 -86.7730 141° Southeast 508 585 33,000  Level FlightAware ADS-B
Fri 01:04:20 AM 20.9640 -86.7040 141° Southeast 508 585 33,000  Level FlightAware ADS-B
Fri 01:05:00 AM 20.8900 -86.6400 141° Southeast 509 586 33,000  Level FlightAware ADS-B
Fri 01:05:44 AM 20.8120 -86.5730 141° Southeast 510 587 33,000  Level FlightAware ADS-B
Fri 01:06:16 AM 20.7510 -86.5190 140° Southeast 510 587 33,000  Level FlightAware ADS-B
Fri 01:07:02 AM 20.6670 -86.4470 141° Southeast 511 588 33,000  Level FlightAware ADS-B
Fri 01:07:40 AM 20.5970 -86.3860 141° Southeast 511 588 33,000  Level FlightAware ADS-B
Fri 01:08:14 AM 20.5550 -86.3500 141° Southeast 512 589 33,000  Level FlightAware ADS-B
Fri 01:08:59 AM 20.4780 -86.2810 140° Southeast 512 589 33,000  Level FlightAware ADS-B
Fri 01:09:36 AM 20.3850 -86.2040 142° Southeast 513 590 33,000  Level FlightAware ADS-B
Fri 01:10:18 AM 20.3150 -86.1430 141° Southeast 514 592 33,000  Level FlightAware ADS-B
Fri 01:11:23 AM 20.2230 -86.0640 141° Southeast 514 592 33,000  Level FlightAware ADS-B
Fri 01:12:08 AM 20.1000 -85.9590 141° Southeast 514 592 33,000  Level FlightAware ADS-B
Fri 01:12:44 AM 20.0330 -85.9010 141° Southeast 514 592 33,000  Level FlightAware ADS-B
Fri 01:13:30 AM 19.9510 -85.8260 139° Southeast 516 594 33,000  Level FlightAware ADS-B
Fri 01:14:06 AM 19.8890 -85.7630 136° Southeast 517 595 33,000  Level FlightAware ADS-B
Fri 01:14:46 AM 19.8220 -85.6900 134° Southeast 519 597 33,000  Level FlightAware ADS-B
Fri 01:15:26 AM 19.7540 -85.6160 134° Southeast 519 597 33,000  Level FlightAware ADS-B
Fri 01:16:08 AM 19.6840 -85.5410 135° Southeast 518 596 33,000  Level FlightAware ADS-B
Fri 01:16:45 AM 19.6310 -85.4830 134° Southeast 518 596 33,000  Level FlightAware ADS-B
Fri 01:17:33 AM 19.5630 -85.4090 134° Southeast 518 596 33,000  Level FlightAware ADS-B
Fri 01:18:09 AM 19.5120 -85.3530 134° Southeast 518 596 33,000  Level FlightAware ADS-B
Fri 01:18:57 AM 19.4450 -85.2780 133° Southeast 518 596 33,000  Level FlightAware ADS-B
Fri 01:19:57 AM 19.3060 -85.1380 136° Southeast 517 595 33,000  Level FlightAware ADS-B
Fri 01:20:34 AM 19.2410 -85.0700 135° Southeast 519 597 33,000  Level FlightAware ADS-B
Fri 01:21:22 AM 19.1730 -84.9950 134° Southeast 519 597 33,000  Level FlightAware ADS-B
Fri 01:21:58 AM 19.1220 -84.9390 134° Southeast 519 597 33,000  Level FlightAware ADS-B
Fri 01:22:34 AM 19.0710 -84.8830 134° Southeast 519 597 33,000  Level FlightAware ADS-B
Fri 01:23:34 AM 18.9860 -84.7900 134° Southeast 519 597 33,000  Level FlightAware ADS-B
Fri 01:24:10 AM 18.9340 -84.7340 134° Southeast 519 597 33,000  Level FlightAware ADS-B
Fri 01:24:58 AM 18.8660 -84.6600 134° Southeast 519 597 33,000  Level FlightAware ADS-B
Fri 01:25:34 AM 18.8150 -84.6040 134° Southeast 519 597 33,000  Level FlightAware ADS-B
Fri 01:26:22 AM 18.7470 -84.5290 134° Southeast 519 597 33,000  Level FlightAware ADS-B
Fri 01:26:58 AM 18.6960 -84.4740 134° Southeast 519 597 33,000  Level FlightAware ADS-B
Fri 01:27:46 AM 18.6280 -84.3990 134° Southeast 519 597 33,000  Level FlightAware ADS-B
Fri 01:28:23 AM 18.5760 -84.3420 134° Southeast 519 597 33,000  Level FlightAware ADS-B
Fri 01:29:23 AM 18.4910 -84.2490 134° Southeast 519 597 33,000  Level FlightAware ADS-B
Fri 01:29:59 AM 18.4400 -84.1930 134° Southeast 519 597 33,000  Level FlightAware ADS-B
Fri 01:32:00 AM 18.2656 -83.9872 132° Southeast  Level FlightAware Approximate
Fri 01:33:00 AM 18.1790 -83.8854 132° Southeast  Level FlightAware Approximate
Fri 01:34:00 AM 18.0924 -83.7836 132° Southeast  Level FlightAware Approximate
Fri 01:35:00 AM 18.0057 -83.6819 132° Southeast  Level FlightAware Approximate
Fri 01:36:00 AM 17.9138 -83.5792 135° Southeast  Level FlightAware Approximate
Fri 01:37:00 AM 17.8211 -83.4837 135° Southeast  Level FlightAware Approximate
Fri 01:38:00 AM 17.7285 -83.3882 136° Southeast  Level FlightAware Approximate
Fri 01:39:00 AM 17.6358 -83.2927 136° Southeast  Level FlightAware Approximate
Fri 01:40:00 AM 17.5430 -83.1974 136° Southeast  Level FlightAware Approximate
Fri 01:41:00 AM 17.4502 -83.1022 136° Southeast  Level FlightAware Approximate
Fri 01:42:00 AM 17.3568 -83.0077 139° Southeast  Level FlightAware Approximate
Fri 01:43:00 AM 17.2590 -82.9182 139° Southeast  Level FlightAware Approximate
Fri 01:44:00 AM 17.1612 -82.8289 139° Southeast  Level FlightAware Approximate
Fri 01:45:00 AM 17.0633 -82.7396 139° Southeast  Level FlightAware Approximate
Fri 01:46:00 AM 16.9654 -82.6505 139° Southeast  Level FlightAware Approximate
Fri 01:47:00 AM 16.8674 -82.5614 139° Southeast  Level FlightAware Approximate
Fri 01:48:00 AM 16.7694 -82.4724 139° Southeast  Level FlightAware Approximate
Fri 01:49:00 AM 16.6713 -82.3835 139° Southeast  Level FlightAware Approximate
Fri 01:50:00 AM 16.5733 -82.2947 139° Southeast  Level FlightAware Approximate
Fri 01:51:00 AM 16.4751 -82.2060 139° Southeast  Level FlightAware Approximate
Fri 01:52:00 AM 16.3827 -82.1111 134° Southeast  Level FlightAware Approximate
Fri 01:53:00 AM 16.2922 -82.0141 134° Southeast  Level FlightAware Approximate
Fri 01:54:00 AM 16.2017 -81.9171 134° Southeast  Level FlightAware Approximate
Fri 01:55:00 AM 16.1111 -81.8203 134° Southeast  Level FlightAware Approximate
Fri 01:56:00 AM 16.0205 -81.7235 134° Southeast  Level FlightAware Approximate
Fri 01:57:00 AM 15.9298 -81.6268 134° Southeast  Level FlightAware Approximate
Fri 01:58:00 AM 15.8391 -81.5302 134° Southeast  Level FlightAware Approximate
Fri 01:59:00 AM 15.7484 -81.4337 134° Southeast  Level FlightAware Approximate
Fri 02:00:00 AM 15.6586 -81.3363 133° Southeast  Level FlightAware Approximate
Fri 02:01:00 AM 15.5694 -81.2383 133° Southeast  Level FlightAware Approximate
Fri 02:02:00 AM 15.4801 -81.1405 133° Southeast  Level FlightAware Approximate
Fri 02:03:00 AM 15.3908 -81.0427 133° Southeast  Level FlightAware Approximate
Fri 02:04:00 AM 15.3014 -80.9451 133° Southeast  Level FlightAware Approximate
Fri 02:05:00 AM 15.2120 -80.8475 134° Southeast  Level FlightAware Approximate
Fri 02:06:00 AM 15.1225 -80.7500 134° Southeast  Level FlightAware Approximate
Fri 02:07:00 AM 15.0330 -80.6526 134° Southeast  Level FlightAware Approximate
Fri 02:08:00 AM 14.9353 -80.5646 142° Southeast  Level FlightAware Approximate
Fri 02:09:00 AM 14.8328 -80.4821 142° Southeast  Level FlightAware Approximate
Fri 02:10:00 AM 14.7302 -80.3997 142° Southeast  Level FlightAware Approximate
Fri 02:11:00 AM 14.6277 -80.3174 142° Southeast  Level FlightAware Approximate
Fri 02:12:00 AM 14.5251 -80.2352 142° Southeast  Level FlightAware Approximate
Fri 02:13:00 AM 14.4224 -80.1530 142° Southeast  Level FlightAware Approximate
Fri 02:14:00 AM 14.3198 -80.0710 142° Southeast  Level FlightAware Approximate
Fri 02:15:00 AM 14.2171 -79.9890 142° Southeast  Level FlightAware Approximate
Fri 02:16:00 AM 14.1144 -79.9070 142° Southeast  Level FlightAware Approximate
Fri 02:17:00 AM 14.0117 -79.8252 142° Southeast  Level FlightAware Approximate
Fri 02:18:00 AM 13.9089 -79.7434 142° Southeast  Level FlightAware Approximate
Fri 02:19:00 AM 13.8062 -79.6617 142° Southeast  Level FlightAware Approximate
Fri 02:20:00 AM 13.7035 -79.5798 142° Southeast  Level FlightAware Approximate
Fri 02:21:00 AM 13.6008 -79.4980 142° Southeast  Level FlightAware Approximate
Fri 02:22:00 AM 13.4981 -79.4163 142° Southeast  Level FlightAware Approximate
Fri 02:23:00 AM 13.3954 -79.3347 142° Southeast  Level FlightAware Approximate
Fri 02:24:00 AM 13.2926 -79.2532 142° Southeast  Level FlightAware Approximate
Fri 02:25:00 AM 13.1898 -79.1717 142° Southeast  Level FlightAware Approximate
Fri 02:26:00 AM 13.0870 -79.0902 142° Southeast  Level FlightAware Approximate
Fri 02:27:00 AM 12.9841 -79.0089 142° Southeast  Level FlightAware Approximate
Fri 02:28:00 AM 12.8813 -78.9276 142° Southeast  Level FlightAware Approximate
Fri 02:29:00 AM 12.7784 -78.8464 142° Southeast  Level FlightAware Approximate
Fri 02:30:00 AM 12.6754 -78.7652 142° Southeast  Level FlightAware Approximate
Fri 02:31:00 AM 12.5725 -78.6841 142° Southeast  Level FlightAware Approximate
Fri 02:32:00 AM 12.4695 -78.6031 142° Southeast  Level FlightAware Approximate
Fri 02:33:00 AM 12.3665 -78.5221 142° Southeast  Level FlightAware Approximate
Fri 02:34:00 AM 12.2635 -78.4412 142° Southeast  Level FlightAware Approximate
Fri 02:35:00 AM 12.1605 -78.3604 143° Southeast  Level FlightAware Approximate
Fri 02:36:00 AM 12.0574 -78.2796 143° Southeast  Level FlightAware Approximate
Fri 02:37:00 AM 11.9543 -78.1989 143° Southeast  Level FlightAware Approximate
Fri 02:38:00 AM 11.8512 -78.1183 143° Southeast  Level FlightAware Approximate
Fri 02:38:49 AM 10.9010 -77.3630 143° Southeast 504 580 33,000  Level FlightAware ADS-B
Fri 02:39:00 AM 11.7481 -78.0377 143° Southeast  Level FlightAware Approximate
Fri 02:39:29 AM 10.8390 -77.3050 137° Southeast 503 579 33,000  Level FlightAware ADS-B
Fri 02:40:05 AM 10.7700 -77.2410 138° Southeast 503 579 33,000  Level FlightAware ADS-B
Fri 02:41:08 AM 10.6760 -77.1520 137° Southeast 504 580 33,000  Level FlightAware ADS-B
Fri 02:41:47 AM 10.5980 -77.0800 138° Southeast 505 581 33,000  Level FlightAware ADS-B
Fri 02:42:44 AM 10.5030 -76.9910 137° Southeast 507 583 33,000  Level FlightAware ADS-B
Fri 02:43:17 AM 10.4380 -76.9320 138° Southeast 508 585 33,000 81 Level FlightAware ADS-B
Fri 02:43:58 AM 10.3690 -76.8670 137° Southeast 503 579 33,100 786 Climbing FlightAware ADS-B
Fri 02:44:41 AM 10.2930 -76.7970 138° Southeast 504 580 34,100 1,227 Climbing FlightAware ADS-B
Fri 02:45:26 AM 10.2220 -76.7310 138° Southeast 501 577 34,900 1,000 Climbing FlightAware ADS-B
Fri 02:46:11 AM 10.1440 -76.6590 138° Southeast 501 577 35,600 918 Climbing FlightAware ADS-B
Fri 02:46:51 AM 10.0730 -76.5930 138° Southeast 501 577 36,200 867 Climbing FlightAware ADS-B
Fri 02:47:34 AM 9.9970 -76.5220 137° Southeast 501 577 36,800 578 Climbing FlightAware ADS-B
Fri 02:48:14 AM 9.9260 -76.4570 138° Southeast 502 578 37,000 141 Climbing FlightAware ADS-B
Fri 02:48:59 AM 9.8500 -76.3860 137° Southeast 502 578 37,000  Level FlightAware ADS-B
Fri 02:49:40 AM 9.7820 -76.3240 138° Southeast 502 578 37,000  Level FlightAware ADS-B
Fri 02:50:25 AM 9.7040 -76.2510 137° Southeast 502 578 37,000  Level FlightAware ADS-B
Fri 02:51:05 AM 9.6370 -76.1890 138° Southeast 503 579 37,000  Level FlightAware ADS-B
Fri 02:52:18 AM 9.5110 -76.0740 138° Southeast 499 574 37,000  Level FlightAware ADS-B
Fri 02:52:59 AM 9.4420 -76.0090 137° Southeast 498 573 37,000  Level FlightAware ADS-B
Fri 02:53:36 AM 9.3750 -75.9480 138° Southeast 495 570 37,000  Level FlightAware ADS-B
Fri 02:54:22 AM 9.3020 -75.8810 138° Southeast 493 567 37,000  Level FlightAware ADS-B
Fri 02:55:08 AM 9.2250 -75.8100 138° Southeast 494 568 37,000  Level FlightAware ADS-B
Fri 02:55:45 AM 9.1590 -75.7490 138° Southeast 495 570 37,000  Level FlightAware ADS-B
Fri 02:56:59 AM 9.0520 -75.6510 138° Southeast 495 570 37,000  Level FlightAware ADS-B
Fri 02:57:35 AM 9.0000 -75.6040 138° Southeast 495 570 37,000  Level FlightAware ADS-B
Fri 02:58:47 AM 8.8670 -75.4810 138° Southeast 495 570 37,000  Level FlightAware ADS-B
Fri 02:59:26 AM 8.7940 -75.4140 138° Southeast 496 571 37,000  Level FlightAware ADS-B
Fri 03:00:24 AM 8.6930 -75.3220 138° Southeast 497 572 37,000  Level FlightAware ADS-B
Fri 03:01:00 AM 8.6410 -75.2740 138° Southeast 497 572 37,000  Level FlightAware ADS-B
Fri 03:01:47 AM 8.5450 -75.1860 138° Southeast 495 570 37,000  Level FlightAware ADS-B
Fri 03:02:23 AM 8.4850 -75.1310 138° Southeast 495 570 37,000  Level FlightAware ADS-B
Fri 03:03:07 AM 8.4070 -75.0600 138° Southeast 496 571 37,000  Level FlightAware ADS-B
Fri 03:03:41 AM 8.3540 -75.0110 138° Southeast 495 570 37,000  Level FlightAware ADS-B
Fri 03:04:28 AM 8.2690 -74.9340 138° Southeast 496 571 37,000  Level FlightAware ADS-B
Fri 03:05:03 AM 8.2080 -74.8770 137° Southeast 495 570 37,000  Level FlightAware ADS-B
Fri 03:05:51 AM 8.1280 -74.8050 138° Southeast 496 571 37,000  Level FlightAware ADS-B
Fri 03:06:30 AM 8.0600 -74.7430 138° Southeast 496 571 37,000  Level FlightAware ADS-B
Fri 03:07:15 AM 7.9830 -74.6720 138° Southeast 497 572 37,000  Level FlightAware ADS-B
Fri 03:07:54 AM 7.9160 -74.6120 138° Southeast 497 572 37,000  Level FlightAware ADS-B
Fri 03:08:31 AM 7.8530 -74.5540 138° Southeast 498 573 37,000  Level FlightAware ADS-B
Fri 03:09:11 AM 7.7850 -74.4920 138° Southeast 497 572 37,000  Level FlightAware ADS-B
Fri 03:09:56 AM 7.7080 -74.4220 138° Southeast 497 572 37,000  Level FlightAware ADS-B
Fri 03:10:36 AM 7.6400 -74.3600 138° Southeast 498 573 37,000  Level FlightAware ADS-B
Fri 03:11:21 AM 7.5630 -74.2900 138° Southeast 498 573 37,000  Level FlightAware ADS-B
Fri 03:11:55 AM 7.5120 -74.2440 138° Southeast 498 573 37,000  Level FlightAware ADS-B
Fri 03:12:46 AM 7.4170 -74.1570 138° Southeast 499 574 37,000  Level FlightAware ADS-B
Fri 03:13:26 AM 7.3500 -74.0970 138° Southeast 501 577 37,000  Level FlightAware ADS-B
Fri 03:14:01 AM 7.2890 -74.0410 138° Southeast 501 577 37,000  Level FlightAware ADS-B
Fri 03:14:44 AM 7.2250 -73.9830 138° Southeast 501 577 37,000  Level FlightAware ADS-B
Fri 03:15:33 AM 7.1530 -73.9180 138° Southeast 501 577 37,000  Level FlightAware ADS-B
Fri 03:16:09 AM 7.1000 -73.8700 138° Southeast 501 577 37,000  Level FlightAware ADS-B
Fri 03:16:52 AM 6.9850 -73.7820 143° Southeast 505 581 37,000  Level FlightAware ADS-B
Fri 03:17:27 AM 6.9150 -73.7430 151° Southeast 505 581 37,000  Level FlightAware ADS-B
Fri 03:18:11 AM 6.8210 -73.6930 152° Southeast 503 579 37,000  Level FlightAware ADS-B
Fri 03:18:55 AM 6.7300 -73.6550 157° South 503 579 37,000  Level FlightAware ADS-B
Fri 03:19:31 AM 6.6500 -73.6230 158° South 501 577 37,000  Level FlightAware ADS-B
Fri 03:20:11 AM 6.5620 -73.5880 158° South 500 575 37,000  Level FlightAware ADS-B
Fri 03:20:55 AM 6.4670 -73.5510 159° South 499 574 37,000  Level FlightAware ADS-B
Fri 03:21:36 AM 6.3820 -73.5120 155° Southeast 497 572 37,000  Level FlightAware ADS-B
Fri 03:22:17 AM 6.2970 -73.4690 153° Southeast 497 572 37,000  Level FlightAware ADS-B
Fri 03:23:01 AM 6.2100 -73.4170 149° Southeast 495 570 37,000  Level FlightAware ADS-B
Fri 03:23:41 AM 6.1320 -73.3680 148° Southeast 495 570 37,000  Level FlightAware ADS-B
Fri 03:24:13 AM 6.0720 -73.3290 147° Southeast 494 568 37,000  Level FlightAware ADS-B
Fri 03:25:15 AM 5.9710 -73.2630 147° Southeast 494 568 37,000  Level FlightAware ADS-B
Fri 03:25:51 AM 5.9130 -73.2250 147° Southeast 494 568 37,000  Level FlightAware ADS-B
Fri 03:26:27 AM 5.8540 -73.1870 147° Southeast 494 568 37,000  Level FlightAware ADS-B
Fri 03:27:27 AM 5.7560 -73.1230 147° Southeast 494 568 37,000  Level FlightAware ADS-B
Fri 03:28:06 AM 5.6200 -73.0370 148° Southeast 495 570 37,000  Level FlightAware ADS-B
Fri 03:28:50 AM 5.5340 -72.9820 148° Southeast 494 568 37,000  Level FlightAware ADS-B
Fri 03:29:31 AM 5.4560 -72.9320 147° Southeast 497 572 37,000  Level FlightAware ADS-B
Fri 03:30:15 AM 5.3710 -72.8770 147° Southeast 494 568 37,000  Level FlightAware ADS-B
Fri 03:30:54 AM 5.2950 -72.8280 147° Southeast 494 568 37,000  Level FlightAware ADS-B
Fri 03:31:32 AM 5.2210 -72.7800 147° Southeast 496 571 37,000  Level FlightAware ADS-B
Fri 03:32:10 AM 5.1470 -72.7330 148° Southeast 496 571 37,000  Level FlightAware ADS-B
Fri 03:32:53 AM 5.0720 -72.6840 147° Southeast 496 571 37,000  Level FlightAware ADS-B
Fri 03:33:30 AM 5.0120 -72.6450 147° Southeast 496 571 37,000  Level FlightAware ADS-B
Fri 03:34:18 AM 4.9330 -72.5940 147° Southeast 496 571 37,000  Level FlightAware ADS-B
Fri 03:34:54 AM 4.8740 -72.5550 147° Southeast 496 571 37,000  Level FlightAware ADS-B
Fri 03:35:42 AM 4.7960 -72.5040 147° Southeast 496 571 37,000  Level FlightAware ADS-B
Fri 03:36:18 AM 4.7370 -72.4660 147° Southeast 496 571 37,000  Level FlightAware ADS-B
Fri 03:36:54 AM 4.6780 -72.4270 147° Southeast 496 571 37,000  Level FlightAware ADS-B
Fri 03:37:42 AM 4.6000 -72.3760 147° Southeast 496 571 37,000  Level FlightAware ADS-B
Fri 03:38:18 AM 4.5410 -72.3380 147° Southeast 496 571 37,000  Level FlightAware ADS-B
Fri 03:38:54 AM 4.4820 -72.3000 147° Southeast 496 571 37,000  Level FlightAware ADS-B
Fri 03:39:44 AM 4.4000 -72.2460 147° Southeast 496 571 37,000  Level FlightAware ADS-B
Fri 03:40:20 AM 4.3410 -72.2080 147° Southeast 496 571 37,000  Level FlightAware ADS-B
Fri 03:41:08 AM 4.2630 -72.1570 147° Southeast 496 571 37,000  Level FlightAware ADS-B
Fri 03:41:44 AM 4.2040 -72.1180 147° Southeast 496 571 37,000 Level FlightAware ADS-B
Fri 03:44:00 AM 3.9814 -71.9242 139° Southeast  Level Estimated
Fri 03:45:00 AM 3.8833 -71.8389 139° Southeast  Level Estimated
Fri 03:46:00 AM 3.7853 -71.7536 139° Southeast  Level Estimated
Fri 03:47:00 AM 3.6872 -71.6683 139° Southeast  Level Estimated
Fri 03:48:00 AM 3.5891 -71.5830 139° Southeast  Level Estimated
Fri 03:49:00 AM 3.4911 -71.4978 139° Southeast  Level Estimated
Fri 03:50:00 AM 3.3930 -71.4126 139° Southeast  Level Estimated
Fri 03:51:00 AM 3.2949 -71.3274 139° Southeast  Level Estimated
Fri 03:52:00 AM 3.1968 -71.2422 139° Southeast  Level Estimated
Fri 03:53:00 AM 3.0986 -71.1570 139° Southeast  Level Estimated
Fri 03:54:00 AM 3.0005 -71.0719 139° Southeast  Level Estimated
Fri 03:55:00 AM 2.9024 -70.9867 139° Southeast  Level Estimated
Fri 03:56:00 AM 2.8043 -70.9016 139° Southeast  Level Estimated
Fri 03:57:00 AM 2.7061 -70.8165 139° Southeast  Level Estimated
Fri 03:58:00 AM 2.6080 -70.7314 139° Southeast  Level Estimated
Fri 03:59:00 AM 2.5098 -70.6463 139° Southeast  Level Estimated
Fri 04:00:00 AM 2.4117 -70.5612 139° Southeast  Level Estimated
Fri 04:01:00 AM 2.3135 -70.4762 139° Southeast  Level Estimated
Fri 04:02:00 AM 2.2153 -70.3911 139° Southeast  Level Estimated
Fri 04:03:00 AM 2.1172 -70.3061 139° Southeast  Level Estimated
Fri 04:04:00 AM 2.0190 -70.2210 139° Southeast  Level Estimated
Fri 04:05:00 AM 1.9208 -70.1360 139° Southeast  Level Estimated
Fri 04:06:00 AM 1.8226 -70.0510 139° Southeast  Level Estimated
Fri 04:07:00 AM 1.7244 -69.9660 139° Southeast  Level Estimated
Fri 04:08:00 AM 1.6262 -69.8810 139° Southeast  Level Estimated
Fri 04:09:00 AM 1.5280 -69.7960 139° Southeast  Level Estimated
Fri 04:10:00 AM 1.4298 -69.7111 139° Southeast  Level Estimated
Fri 04:11:00 AM 1.3316 -69.6261 139° Southeast  Level Estimated
Fri 04:12:00 AM 1.2334 -69.5411 139° Southeast  Level Estimated
Fri 04:13:00 AM 1.1351 -69.4560 139° Southeast  Level Estimated
Fri 04:14:00 AM 1.0367 -69.3709 139° Southeast  Level Estimated
Fri 04:15:00 AM 0.9383 -69.2858 139° Southeast  Level Estimated
Fri 04:16:00 AM 0.8399 -69.2008 139° Southeast  Level Estimated
Fri 04:17:00 AM 0.7415 -69.1157 139° Southeast  Level Estimated
Fri 04:18:00 AM 0.6431 -69.0306 139° Southeast  Level Estimated
Fri 04:19:00 AM 0.5447 -68.9455 139° Southeast  Level Estimated
Fri 04:20:00 AM 0.4463 -68.8605 139° Southeast  Level Estimated
Fri 04:21:00 AM 0.3480 -68.7754 139° Southeast  Level Estimated
Fri 04:22:00 AM 0.2496 -68.6903 139° Southeast  Level Estimated
Fri 04:23:00 AM 0.1512 -68.6052 139° Southeast  Level Estimated
Fri 04:24:00 AM 0.0528 -68.5202 139° Southeast  Level Estimated
Fri 04:25:00 AM -0.0456 -68.4351 139° Southeast  Level Estimated
Fri 04:26:00 AM -0.1440 -68.3500 139° Southeast  Level Estimated
Fri 04:27:00 AM -0.2424 -68.2650 139° Southeast  Level Estimated
Fri 04:28:00 AM -0.3408 -68.1799 139° Southeast  Level Estimated
Fri 04:29:00 AM -0.4392 -68.0948 139° Southeast  Level Estimated
Fri 04:30:00 AM -0.5376 -68.0098 139° Southeast  Level Estimated
Fri 04:31:00 AM -0.6360 -67.9247 139° Southeast  Level Estimated
Fri 04:32:00 AM -0.7344 -67.8396 139° Southeast  Level Estimated
Fri 04:33:00 AM -0.8328 -67.7545 139° Southeast  Level Estimated
Fri 04:34:00 AM -0.9312 -67.6694 139° Southeast  Level Estimated
Fri 04:35:00 AM -1.0295 -67.5843 139° Southeast  Level Estimated
Fri 04:36:00 AM -1.1279 -67.4992 139° Southeast  Level Estimated
Fri 04:37:00 AM -1.2263 -67.4141 139° Southeast  Level Estimated
Fri 04:38:00 AM -1.3247 -67.3290 139° Southeast  Level Estimated
Fri 04:39:00 AM -1.4231 -67.2439 139° Southeast  Level Estimated
Fri 04:40:00 AM -1.5214 -67.1588 139° Southeast  Level Estimated
Fri 04:41:00 AM -1.6198 -67.0737 139° Southeast  Level Estimated
Fri 04:42:00 AM -1.7182 -66.9885 139° Southeast  Level Estimated
Fri 04:43:00 AM -1.8165 -66.9034 139° Southeast  Level Estimated
Fri 04:44:00 AM -1.9147 -66.8184 139° Southeast  Level Estimated
Fri 04:45:00 AM -2.0129 -66.7334 139° Southeast  Level Estimated
Fri 04:46:00 AM -2.1111 -66.6483 139° Southeast  Level Estimated
Fri 04:47:00 AM -2.2092 -66.5633 139° Southeast  Level Estimated
Fri 04:48:00 AM -2.3074 -66.4782 139° Southeast  Level Estimated
Fri 04:49:00 AM -2.4056 -66.3932 139° Southeast  Level Estimated
Fri 04:50:00 AM -2.5037 -66.3081 139° Southeast  Level Estimated
Fri 04:51:00 AM -2.6019 -66.2230 139° Southeast  Level Estimated
Fri 04:52:00 AM -2.7000 -66.1379 139° Southeast  Level Estimated
Fri 04:53:00 AM -2.7982 -66.0528 139° Southeast  Level Estimated
Fri 04:54:00 AM -2.8963 -65.9677 139° Southeast  Level Estimated
Fri 04:55:00 AM -2.9944 -65.8825 139° Southeast  Level Estimated
Fri 04:56:00 AM -3.0926 -65.7974 139° Southeast  Level Estimated
Fri 04:57:00 AM -3.1907 -65.7122 139° Southeast  Level Estimated
Fri 04:58:00 AM -3.2888 -65.6270 139° Southeast  Level Estimated
Fri 04:59:00 AM -3.3869 -65.5418 139° Southeast  Level Estimated
Fri 05:00:00 AM -3.4850 -65.4566 139° Southeast  Level Estimated
Fri 05:01:00 AM -3.5830 -65.3713 139° Southeast  Level Estimated
Fri 05:02:00 AM -3.6811 -65.2861 139° Southeast  Level Estimated
Fri 05:03:00 AM -3.7792 -65.2008 139° Southeast  Level Estimated
Fri 05:04:00 AM -3.8772 -65.1155 139° Southeast  Level Estimated
Fri 05:05:00 AM -3.9753 -65.0302 139° Southeast  Level Estimated
Fri 05:06:00 AM -4.0733 -64.9448 139° Southeast  Level Estimated
Fri 05:07:00 AM -4.1714 -64.8595 139° Southeast  Level Estimated
Fri 05:08:00 AM -4.2694 -64.7741 139° Southeast  Level Estimated
Fri 05:09:00 AM -4.3674 -64.6887 139° Southeast  Level Estimated
Fri 05:10:00 AM -4.4654 -64.6033 139° Southeast  Level Estimated
Fri 05:11:00 AM -4.5634 -64.5178 139° Southeast  Level Estimated
Fri 05:12:00 AM -4.6614 -64.4324 139° Southeast  Level Estimated
Fri 05:13:00 AM -4.7594 -64.3469 139° Southeast  Level Estimated
Fri 05:14:00 AM -4.8575 -64.2612 139° Southeast  Level Estimated
Fri 05:15:00 AM -4.9556 -64.1755 139° Southeast  Level Estimated
Fri 05:16:00 AM -5.0538 -64.0898 139° Southeast  Level Estimated
Fri 05:17:00 AM -5.1519 -64.0041 139° Southeast  Level Estimated
Fri 05:18:00 AM -5.2499 -63.9183 139° Southeast  Level Estimated
Fri 05:19:00 AM -5.3480 -63.8325 139° Southeast  Level Estimated
Fri 05:20:00 AM -5.4461 -63.7467 139° Southeast  Level Estimated
Fri 05:21:00 AM -5.5441 -63.6608 139° Southeast  Level Estimated
Fri 05:22:00 AM -5.6422 -63.5749 139° Southeast  Level Estimated
Fri 05:23:00 AM -5.7402 -63.4890 139° Southeast  Level Estimated
Fri 05:24:00 AM -5.8382 -63.4031 139° Southeast  Level Estimated
Fri 05:25:00 AM -5.9362 -63.3171 139° Southeast  Level Estimated
Fri 05:26:00 AM -6.0342 -63.2311 139° Southeast  Level Estimated
Fri 05:27:00 AM -6.1322 -63.1451 139° Southeast  Level Estimated
Fri 05:28:00 AM -6.2302 -63.0590 139° Southeast  Level Estimated
Fri 05:29:00 AM -6.3281 -62.9729 139° Southeast  Level Estimated
Fri 05:30:00 AM -6.4261 -62.8868 139° Southeast  Level Estimated
Fri 05:31:00 AM -6.5240 -62.8006 139° Southeast  Level Estimated
Fri 05:32:00 AM -6.6219 -62.7144 139° Southeast  Level Estimated
Fri 05:33:00 AM -6.7198 -62.6282 139° Southeast  Level Estimated
Fri 05:34:00 AM -6.8177 -62.5420 139° Southeast  Level Estimated
Fri 05:35:00 AM -6.9155 -62.4557 139° Southeast  Level Estimated
Fri 05:36:00 AM -7.0134 -62.3693 139° Southeast  Level Estimated
Fri 05:37:00 AM -7.1112 -62.2830 139° Southeast  Level Estimated
Fri 05:38:00 AM -7.2090 -62.1965 139° Southeast  Level Estimated
Fri 05:39:00 AM -7.3068 -62.1101 139° Southeast  Level Estimated
Fri 05:40:00 AM -7.4046 -62.0236 139° Southeast  Level Estimated
Fri 05:41:00 AM -7.5023 -61.9371 139° Southeast  Level Estimated
Fri 05:42:00 AM -7.6001 -61.8505 139° Southeast  Level Estimated
Fri 05:43:00 AM -7.6978 -61.7639 139° Southeast  Level Estimated
Fri 05:44:00 AM -7.7955 -61.6773 139° Southeast  Level Estimated
Fri 05:45:00 AM -7.8932 -61.5906 139° Southeast  Level Estimated
Fri 05:46:00 AM -7.9911 -61.5037 139° Southeast  Level Estimated
Fri 05:47:00 AM -8.0889 -61.4168 139° Southeast  Level Estimated
Fri 05:48:00 AM -8.1867 -61.3299 139° Southeast  Level Estimated
Fri 05:49:00 AM -8.2845 -61.2429 139° Southeast  Level Estimated
Fri 05:50:00 AM -8.3823 -61.1558 139° Southeast  Level Estimated
Fri 05:51:00 AM -8.4800 -61.0687 139° Southeast  Level Estimated
Fri 05:52:00 AM -8.5778 -60.9816 139° Southeast  Level Estimated
Fri 05:53:00 AM -8.6755 -60.8944 139° Southeast  Level Estimated
Fri 05:54:00 AM -8.7732 -60.8072 139° Southeast  Level Estimated
Fri 05:55:00 AM -8.8709 -60.7199 139° Southeast  Level Estimated
Fri 05:56:00 AM -8.9685 -60.6326 139° Southeast  Level Estimated
Fri 05:57:00 AM -9.0662 -60.5453 139° Southeast  Level Estimated
Fri 05:58:00 AM -9.1638 -60.4579 139° Southeast  Level Estimated
Fri 05:59:00 AM -9.2614 -60.3704 139° Southeast  Level Estimated
Fri 06:00:00 AM -9.3589 -60.2829 138° Southeast  Level Estimated
Fri 06:01:00 AM -9.4565 -60.1954 138° Southeast  Level Estimated
Fri 06:02:00 AM -9.5540 -60.1077 138° Southeast  Level Estimated
Fri 06:03:00 AM -9.6515 -60.0201 138° Southeast  Level Estimated
Fri 06:04:00 AM -9.7490 -59.9324 138° Southeast  Level Estimated
Fri 06:05:00 AM -9.8465 -59.8446 138° Southeast  Level Estimated
Fri 06:06:00 AM -9.9439 -59.7568 138° Southeast  Level Estimated
Fri 06:07:00 AM -10.0414 -59.6690 138° Southeast  Level Estimated
Fri 06:08:00 AM -10.1387 -59.5811 138° Southeast  Level Estimated
Fri 06:09:00 AM -10.2365 -59.4928 138° Southeast  Level Estimated
Fri 06:10:00 AM -10.3341 -59.4045 138° Southeast  Level Estimated
Fri 06:11:00 AM -10.4318 -59.3161 138° Southeast  Level Estimated
Fri 06:12:00 AM -10.5294 -59.2276 138° Southeast  Level Estimated
Fri 06:13:00 AM -10.6271 -59.1391 138° Southeast  Level Estimated
Fri 06:14:00 AM -10.7246 -59.0506 138° Southeast  Level Estimated
Fri 06:15:00 AM -10.8222 -58.9620 138° Southeast  Level Estimated
Fri 06:16:00 AM -10.9198 -58.8733 138° Southeast  Level Estimated
Fri 06:17:00 AM -11.0173 -58.7846 138° Southeast  Level Estimated
Fri 06:18:00 AM -11.1147 -58.6958 138° Southeast  Level Estimated
Fri 06:19:00 AM -11.2122 -58.6070 138° Southeast  Level Estimated
Fri 06:20:00 AM -11.3097 -58.5181 138° Southeast  Level Estimated
Fri 06:21:00 AM -11.4071 -58.4291 138° Southeast  Level Estimated
Fri 06:22:00 AM -11.5044 -58.3401 138° Southeast  Level Estimated
Fri 06:23:00 AM -11.6018 -58.2510 138° Southeast  Level Estimated
Fri 06:24:00 AM -11.6991 -58.1619 138° Southeast  Level Estimated
Fri 06:25:00 AM -11.7964 -58.0727 138° Southeast  Level Estimated
Fri 06:26:00 AM -11.8937 -57.9834 138° Southeast  Level Estimated
Fri 06:27:00 AM -11.9909 -57.8940 138° Southeast  Level Estimated
Fri 06:28:00 AM -12.0882 -57.8046 138° Southeast  Level Estimated
Fri 06:29:00 AM -12.1854 -57.7152 138° Southeast  Level Estimated
Fri 06:30:00 AM -12.2825 -57.6256 138° Southeast  Level Estimated
Fri 06:31:00 AM -12.3796 -57.5360 138° Southeast  Level Estimated
Fri 06:32:00 AM -12.4767 -57.4464 138° Southeast  Level Estimated
Fri 06:33:00 AM -12.5738 -57.3566 138° Southeast  Level Estimated
Fri 06:34:00 AM -12.6708 -57.2668 138° Southeast  Level Estimated
Fri 06:35:00 AM -12.7679 -57.1770 138° Southeast  Level Estimated
Fri 06:36:00 AM -12.8648 -57.0870 138° Southeast  Level Estimated
Fri 06:37:00 AM -12.9618 -56.9970 138° Southeast  Level Estimated
Fri 06:38:00 AM -13.0587 -56.9069 138° Southeast  Level Estimated
Fri 06:39:00 AM -13.1556 -56.8168 138° Southeast  Level Estimated
Fri 06:40:00 AM -13.2525 -56.7266 138° Southeast  Level Estimated
Fri 06:41:00 AM -13.3493 -56.6363 138° Southeast  Level Estimated
Fri 06:42:00 AM -13.4461 -56.5459 138° Southeast  Level Estimated
Fri 06:43:00 AM -13.5428 -56.4555 138° Southeast  Level Estimated
Fri 06:44:00 AM -13.6396 -56.3650 138° Southeast  Level Estimated
Fri 06:45:00 AM -13.7363 -56.2744 138° Southeast  Level Estimated
Fri 06:46:00 AM -13.8329 -56.1837 138° Southeast  Level Estimated
Fri 06:47:00 AM -13.9296 -56.0930 138° Southeast  Level Estimated
Fri 06:48:00 AM -14.0261 -56.0022 138° Southeast  Level Estimated
Fri 06:49:00 AM -14.1227 -55.9113 138° Southeast  Level Estimated
Fri 06:50:00 AM -14.2192 -55.8203 138° Southeast  Level Estimated
Fri 06:51:00 AM -14.3157 -55.7293 138° Southeast  Level Estimated
Fri 06:52:00 AM -14.4122 -55.6382 138° Southeast  Level Estimated
Fri 06:53:00 AM -14.5086 -55.5470 138° Southeast  Level Estimated
Fri 06:54:00 AM -14.6050 -55.4557 138° Southeast  Level Estimated
Fri 06:55:00 AM -14.7014 -55.3643 137° Southeast  Level Estimated
Fri 06:56:00 AM -14.7977 -55.2729 137° Southeast  Level Estimated
Fri 06:57:00 AM -14.8940 -55.1814 137° Southeast  Level Estimated
Fri 06:58:00 AM -14.9902 -55.0898 137° Southeast  Level Estimated
Fri 06:59:00 AM -15.0864 -54.9981 137° Southeast  Level Estimated
Fri 07:00:00 AM -15.1826 -54.9063 137° Southeast  Level Estimated
Fri 07:01:00 AM -15.2787 -54.8144 137° Southeast  Level Estimated
Fri 07:02:00 AM -15.3748 -54.7225 137° Southeast  Level Estimated
Fri 07:03:00 AM -15.4709 -54.6305 137° Southeast  Level Estimated
Fri 07:04:00 AM -15.5669 -54.5384 137° Southeast  Level Estimated
Fri 07:05:00 AM -15.6629 -54.4462 137° Southeast  Level Estimated
Fri 07:06:00 AM -15.7588 -54.3539 137° Southeast  Level Estimated
Fri 07:07:00 AM -15.8547 -54.2615 137° Southeast  Level Estimated
Fri 07:08:00 AM -15.9506 -54.1691 137° Southeast  Level Estimated
Fri 07:09:00 AM -16.0464 -54.0765 137° Southeast  Level Estimated
Fri 07:10:00 AM -16.1422 -53.9839 137° Southeast  Level Estimated
Fri 07:11:00 AM -16.2379 -53.8912 137° Southeast  Level Estimated
Fri 07:12:00 AM -16.3337 -53.7984 137° Southeast  Level Estimated
Fri 07:13:00 AM -16.4293 -53.7055 137° Southeast  Level Estimated
Fri 07:14:00 AM -16.5249 -53.6125 137° Southeast  Level Estimated
Fri 07:15:00 AM -16.6205 -53.5194 137° Southeast  Level Estimated
Fri 07:16:00 AM -16.7160 -53.4262 137° Southeast  Level Estimated
Fri 07:17:00 AM -16.8116 -53.3330 137° Southeast  Level Estimated
Fri 07:18:00 AM -16.9070 -53.2396 137° Southeast  Level Estimated
Fri 07:19:00 AM -17.0024 -53.1461 137° Southeast  Level Estimated
Fri 07:20:00 AM -17.0978 -53.0526 137° Southeast  Level Estimated
Fri 07:21:00 AM -17.1931 -52.9589 137° Southeast  Level Estimated
Fri 07:22:00 AM -17.2884 -52.8652 137° Southeast  Level Estimated
Fri 07:23:00 AM -17.3837 -52.7713 137° Southeast  Level Estimated
Fri 07:24:00 AM -17.4789 -52.6774 137° Southeast  Level Estimated
Fri 07:25:00 AM -17.5740 -52.5833 137° Southeast  Level Estimated
Fri 07:26:00 AM -17.6691 -52.4892 137° Southeast  Level Estimated
Fri 07:27:00 AM -17.7642 -52.3950 137° Southeast  Level Estimated
Fri 07:28:00 AM -17.8592 -52.3006 137° Southeast  Level Estimated
Fri 07:29:00 AM -17.9542 -52.2062 137° Southeast  Level Estimated
Fri 07:30:00 AM -18.0491 -52.1116 137° Southeast  Level Estimated
Fri 07:31:00 AM -18.1440 -52.0170 137° Southeast  Level Estimated
Fri 07:32:00 AM -18.2388 -51.9222 137° Southeast  Level Estimated
Fri 07:33:00 AM -18.3336 -51.8274 136° Southeast  Level Estimated
Fri 07:34:00 AM -18.4284 -51.7324 136° Southeast  Level Estimated
Fri 07:35:00 AM -18.5231 -51.6374 136° Southeast  Level Estimated
Fri 07:36:00 AM -18.6177 -51.5422 136° Southeast  Level Estimated
Fri 07:37:00 AM -18.7123 -51.4470 136° Southeast  Level Estimated
Fri 07:37:24 AM -18.9340 -50.7430 136° Southeast 485 558 39,000  Level FlightAware ADS-B
Fri 07:38:00 AM -18.8069 -51.3516 136° Southeast  Level Estimated
Fri 07:38:04 AM -18.9860 -50.6840 133° Southeast 485 558 39,000  Level FlightAware ADS-B
Fri 07:38:52 AM -19.0710 -50.5930 135° Southeast 485 558 39,000  Level FlightAware ADS-B
Fri 07:39:28 AM -19.1280 -50.5310 134° Southeast 485 558 39,000  Level FlightAware ADS-B
Fri 07:40:16 AM -19.2000 -50.4530 134° Southeast 485 558 39,000  Level FlightAware ADS-B
Fri 07:40:59 AM -19.2700 -50.3750 134° Southeast 485 558 39,000  Level FlightAware ADS-B
Fri 07:41:41 AM -19.3360 -50.3030 134° Southeast 483 556 39,000  Level FlightAware ADS-B
Fri 07:42:23 AM -19.3990 -50.2340 134° Southeast 482 555 39,000  Level FlightAware ADS-B
Fri 07:43:06 AM -19.4680 -50.1580 134° Southeast 480 552 39,000  Level FlightAware ADS-B
Fri 07:43:46 AM -19.5290 -50.0910 134° Southeast 480 552 39,000  Level FlightAware ADS-B
Fri 07:44:31 AM -19.5980 -50.0140 134° Southeast 480 552 39,000  Level FlightAware ADS-B
Fri 07:45:11 AM -19.6600 -49.9460 134° Southeast 478 550 39,000  Level FlightAware ADS-B
Fri 07:45:55 AM -19.7280 -49.8730 135° Southeast 478 550 39,000  Level FlightAware ADS-B
Fri 07:46:35 AM -19.7900 -49.8050 134° Southeast 477 549 39,000  Level FlightAware ADS-B
Fri 07:47:13 AM -19.8490 -49.7400 134° Southeast 476 548 39,000  Level FlightAware ADS-B
Fri 07:48:00 AM -19.9190 -49.6630 134° Southeast 475 547 39,000  Level FlightAware ADS-B
Fri 07:48:38 AM -19.9790 -49.5980 134° Southeast 475 547 39,000  Level FlightAware ADS-B
Fri 07:49:24 AM -20.0470 -49.5240 134° Southeast 474 545 39,000  Level FlightAware ADS-B
Fri 07:50:04 AM -20.1090 -49.4550 134° Southeast 474 545 39,000  Level FlightAware ADS-B
Fri 07:50:43 AM -20.1730 -49.3920 137° Southeast 471 542 39,000  Level FlightAware ADS-B
Fri 07:51:29 AM -20.2490 -49.3230 140° Southeast 472 543 39,000  Level FlightAware ADS-B
Fri 07:52:10 AM -20.3160 -49.2600 139° Southeast 473 544 39,000  Level FlightAware ADS-B
Fri 07:52:54 AM -20.3870 -49.1930 139° Southeast 474 545 39,000  Level FlightAware ADS-B
Fri 07:53:34 AM -20.4540 -49.1300 139° Southeast 473 544 39,000  Level FlightAware ADS-B
Fri 07:54:19 AM -20.5290 -49.0590 138° Southeast 473 544 39,000  Level FlightAware ADS-B
Fri 07:54:59 AM -20.5920 -48.9990 138° Southeast 473 544 39,000  Level FlightAware ADS-B
Fri 07:55:42 AM -20.6620 -48.9330 139° Southeast 473 544 39,000  Level FlightAware ADS-B
Fri 07:56:23 AM -20.7300 -48.8680 138° Southeast 474 545 39,000  Level FlightAware ADS-B
Fri 07:57:07 AM -20.8020 -48.8000 139° Southeast 473 544 39,000  Level FlightAware ADS-B
Fri 07:57:46 AM -20.8650 -48.7410 139° Southeast 474 545 39,000  Level FlightAware ADS-B
Fri 07:58:30 AM -20.9400 -48.6700 139° Southeast 475 547 39,000  Level FlightAware ADS-B
Fri 07:59:11 AM -21.0070 -48.6060 138° Southeast 475 547 39,000  Level FlightAware ADS-B
Fri 07:59:54 AM -21.0790 -48.5390 139° Southeast 475 547 39,000  Level FlightAware ADS-B
Fri 08:00:36 AM -21.1470 -48.4750 139° Southeast 476 548 39,000  Level FlightAware ADS-B
Fri 08:01:16 AM -21.2140 -48.4110 138° Southeast 475 547 39,000  Level FlightAware ADS-B
Fri 08:02:00 AM -21.2870 -48.3410 138° Southeast 475 547 39,000  Level FlightAware ADS-B
Fri 08:02:40 AM -21.3530 -48.2780 138° Southeast 475 547 39,000  Level FlightAware ADS-B
Fri 08:03:16 AM -21.4120 -48.2220 139° Southeast 475 547 39,000  Level FlightAware ADS-B
Fri 08:03:56 AM -21.4770 -48.1600 138° Southeast 475 547 39,000  Level FlightAware ADS-B
Fri 08:04:40 AM -21.5500 -48.0900 138° Southeast 475 547 39,000  Level FlightAware ADS-B
Fri 08:05:17 AM -21.6100 -48.0330 139° Southeast 476 548 39,000  Level FlightAware ADS-B
Fri 08:05:56 AM -21.6750 -47.9700 138° Southeast 476 548 39,000  Level FlightAware ADS-B
Fri 08:06:40 AM -21.7470 -47.9010 138° Southeast 474 545 39,000 -706 Level FlightAware ADS-B
Fri 08:07:21 AM -21.8120 -47.8390 138° Southeast 461 531 38,000 -2,143 Descending FlightAware ADS-B
Fri 08:08:04 AM -21.8820 -47.7720 138° Southeast 464 534 36,000 -2,602 Descending FlightAware ADS-B
Fri 08:08:44 AM -21.9460 -47.7100 138° Southeast 463 533 34,400 -2,175 Descending FlightAware ADS-B
Fri 08:09:24 AM -22.0080 -47.6500 138° Southeast 453 521 33,100 -1,902 Descending FlightAware ADS-B
Fri 08:10:06 AM -22.0710 -47.5890 138° Southeast 443 510 31,800 -1,976 Descending FlightAware ADS-B
Fri 08:10:46 AM -22.1350 -47.5270 138° Southeast 435 501 30,400 -1,867 Descending FlightAware ADS-B
Fri 08:11:36 AM -22.1990 -47.4650 138° Southeast 425 489 29,000 -1,871 Descending FlightAware ADS-B
Fri 08:12:19 AM -22.2700 -47.3970 138° Southeast 416 479 27,500 -2,000 Descending FlightAware ADS-B
Fri 08:13:00 AM -22.3290 -47.3390 138° Southeast 408 470 26,200 -1,906 Descending FlightAware ADS-B
Fri 08:13:44 AM -22.3900 -47.2800 138° Southeast 400 460 24,800 -1,857 Descending FlightAware ADS-B
Fri 08:14:24 AM -22.4450 -47.2260 138° Southeast 393 452 23,600 -1,800 Descending FlightAware ADS-B
Fri 08:15:04 AM -22.4980 -47.1750 138° Southeast 386 444 22,400 -1,829 Descending FlightAware ADS-B
Fri 08:15:46 AM -22.5530 -47.1210 138° Southeast 380 437 21,100 -1,793 Descending FlightAware ADS-B
Fri 08:16:31 AM -22.6190 -47.0790 150° Southeast 375 432 19,800 -1,765 Descending FlightAware ADS-B
Fri 08:17:11 AM -22.6850 -47.0520 159° South 369 425 18,600 -1,846 Descending FlightAware ADS-B
Fri 08:17:49 AM -22.7460 -47.0270 159° South 365 420 17,400 -1,769 Descending FlightAware ADS-B
Fri 08:18:29 AM -22.8090 -47.0010 159° South 359 413 16,300 -1,714 Descending FlightAware ADS-B
Fri 08:19:13 AM -22.8760 -46.9720 158° South 354 407 15,000 -1,875 Descending FlightAware ADS-B
Fri 08:19:49 AM -22.9320 -46.9490 159° South 353 406 13,800 -1,895 Descending FlightAware ADS-B
Fri 08:20:29 AM -22.9940 -46.9230 159° South 352 405 12,600 -1,875 Descending FlightAware ADS-B
Fri 08:21:09 AM -23.0530 -46.8980 159° South 347 399 11,300 -1,778 Descending FlightAware ADS-B
Fri 08:21:50 AM -23.1130 -46.8730 159° South 321 369 10,200 -1,397 Descending FlightAware ADS-B
Fri 08:22:22 AM -23.1550 -46.8550 158° South 299 344 9,600 -1,200 Descending FlightAware ADS-B
Fri 08:22:45 AM -23.1860 -46.8420 159° South 298 343 9,100 -1,309 Descending FlightAware ADS-B
Fri 08:23:17 AM -23.2260 -46.8240 158° South 293 337 8,400 -1,200 Descending FlightAware ADS-B
Fri 08:23:45 AM -23.2620 -46.8100 160° South 287 330 7,900 -1,269 Descending FlightAware ADS-B
Fri 08:24:09 AM -23.2910 -46.7970 158° South 286 329 7,300 -964 Descending FlightAware ADS-B
Fri 08:24:41 AM -23.3290 -46.7810 159° South 264 304 7,000 -536 Descending FlightAware ADS-B
Fri 08:25:05 AM -23.3550 -46.7700 159° South 246 283 6,800 -500 Descending FlightAware ADS-B
Fri 08:25:29 AM -23.3790 -46.7560 152° Southeast 233 268 6,600 -808 Descending FlightAware ADS-B
Fri 08:25:57 AM -23.4020 -46.7350 140° Southeast 227 261 6,100 -1,050 Descending FlightAware ADS-B
Fri 08:26:09 AM -23.4110 -46.7260 137° Southeast 226 260 5,900 -1,000 Descending FlightAware ADS-B
Fri 08:26:39 AM -23.4350 -46.7040 140° Southeast 223 257 5,400 -913 Descending FlightAware ADS-B
Fri 08:26:55 AM -23.4460 -46.6930 137° Southeast 222 255 5,200 -857 Descending FlightAware ADS-B
Fri 08:27:07 AM -23.4530 -46.6810 122° Southeast 215 247 5,000 -923 Descending FlightAware ADS-B
Fri 08:27:21 AM -23.4590 -46.6670 115° Southeast 207 238 4,800 -682 Descending FlightAware ADS-B
Fri 08:27:51 AM -23.4710 -46.6380 114° Southeast 204 235 4,500 -571 Descending FlightAware ADS-B
Fri 08:28:03 AM -23.4740 -46.6260 105° East 200 230 4,400 -429 Descending FlightAware ADS-B
Fri 08:28:19 AM -23.4720 -46.6110 82° East 196 226 4,300 -429 Descending FlightAware ADS-B
Fri 08:28:31 AM -23.4690 -46.6000 73° East 196 226 4,200 -900 Descending FlightAware ADS-B
Fri 08:28:59 AM -23.4630 -46.5750 75° East 180 207 3,700 -982 Descending FlightAware ADS-B
Fri 08:29:26 AM -23.4570 -46.5540 73° East 155 178 3,300 -750 Descending FlightAware ADS-B
Fri 08:29:55 AM -23.4510 -46.5320 73° East 150 173 3,000 -600 Descending FlightAware ADS-B
Fri 08:30:16 AM -23.4480 -46.5210 73° East 147 169 2,800 -698 Descending FlightAware ADS-B
Fri 08:30:38 AM -23.4440 -46.5070 73° East 143 165 2,500 -875 Descending FlightAware ADS-B
Fri 08:31:04 AM -23.4380 -46.4840 74° East 145 167 2,100 -923 Descending FlightAware ADS-B
Fri 08:31:25 AM -23.4350 -46.4720 75° East 88 101 -6,000 Descending FlightAware ADS-B
Fri 08:32:01 AM -23.4320 -46.4620 72° East 67 77  Level FlightAware ADS-B
Fri 08:34:00 AM -23.4321 -46.4695 137° Southeast  Level Estimated
Fri 08:34:07 AM -23.4280 -46.4620 137° Southeast 12 14  Level FlightAware ADS-B
Fri 08:34:17 AM -23.4270 -46.4620 360° North 11 13  Level FlightAware ADS-B
Fri 08:35:02 AM -23.4270 -46.4640 270° West 15 17  Level FlightAware ADS-B
Fri 08:35:32 AM -23.4280 -46.4660 241° Southwest 19 22  Level FlightAware ADS-B
Fri 08:35:48 AM -23.4280 -46.4680 270° West 20 23  Level FlightAware ADS-B
Fri 08:36:12 AM -23.4290 -46.4700 241° Southwest 23 26  Level FlightAware ADS-B
Fri 08:37:08 AM -23.4300 -46.4760 260° West 20 23  Level FlightAware ADS-B
Fri 08:37:37 AM -23.4310 -46.4780 241° Southwest 5 6  Level FlightAware ADS-B
Fri 08:38:03 AM -23.4300 -46.4780 360° North 10 12  Level FlightAware ADS-B
Fri 08:38:27 AM -23.4290 -46.4780 360° North 10 12  Level FlightAware ADS-B
Fri 08:38:52 AM -23.4280 -46.4790 317° Northwest 10 12  Level FlightAware ADS-B

Login

Don't have an account? Register now (free) for customized features, flight alerts, and more!